createdAt,value
2022-12-08T00:01:07.782Z,4.55
2022-12-08T00:03:34.716Z,4.59
2022-12-08T00:06:20.760Z,4.62
2022-12-08T00:09:06.097Z,4.65
2022-12-08T00:11:32.740Z,4.70
2022-12-08T00:14:02.310Z,4.72
2022-12-08T00:16:28.935Z,4.74
2022-12-08T00:19:00.267Z,4.75
2022-12-08T00:21:26.894Z,4.64
2022-12-08T00:23:55.244Z,4.48
2022-12-08T00:26:22.063Z,4.40
2022-12-08T00:28:48.687Z,4.40
2022-12-08T00:31:17.828Z,4.42
2022-12-08T00:33:44.512Z,4.37
2022-12-08T00:36:12.808Z,4.33
2022-12-08T00:38:39.727Z,4.36
2022-12-08T00:41:12.458Z,4.37
2022-12-08T00:43:41.909Z,4.43
2022-12-08T00:46:14.109Z,4.52
2022-12-08T00:48:43.199Z,4.59
2022-12-08T00:51:14.707Z,4.69
2022-12-08T00:53:41.522Z,4.69
2022-12-08T00:56:08.200Z,4.75
2022-12-08T00:58:34.753Z,4.81
2022-12-08T01:01:01.363Z,4.83
2022-12-08T01:03:28.039Z,4.86
2022-12-08T01:05:57.139Z,4.90
2022-12-08T01:08:23.722Z,4.92
2022-12-08T01:10:50.378Z,4.90
2022-12-08T01:13:17.006Z,4.85
2022-12-08T01:15:43.622Z,4.78
2022-12-08T01:18:10.144Z,4.73
2022-12-08T01:20:36.694Z,4.70
2022-12-08T01:23:05.366Z,4.66
2022-12-08T01:25:35.502Z,4.62
2022-12-08T01:28:07.474Z,4.40
2022-12-08T01:30:34.446Z,4.21
2022-12-08T01:33:01.037Z,4.14
2022-12-08T01:35:28.039Z,4.11
2022-12-08T01:37:54.724Z,4.11
2022-12-08T01:40:21.275Z,4.00
2022-12-08T01:42:47.824Z,3.96
2022-12-08T01:45:15.794Z,3.94
2022-12-08T01:47:43.327Z,3.89
2022-12-08T01:50:11.035Z,3.86
2022-12-08T01:52:41.318Z,3.86
2022-12-08T01:55:18.277Z,3.84
2022-12-08T01:57:46.443Z,3.83
2022-12-08T02:00:14.679Z,3.82
2022-12-08T02:02:47.410Z,3.69
2022-12-08T02:05:14.026Z,3.62
2022-12-08T02:07:41.092Z,3.66
2022-12-08T02:10:08.027Z,3.65
2022-12-08T02:12:34.625Z,3.69
2022-12-08T02:15:05.071Z,3.71
2022-12-08T02:17:54.379Z,3.72
2022-12-08T02:20:40.027Z,3.70
2022-12-08T02:23:18.124Z,3.66
2022-12-08T02:26:03.447Z,3.66
2022-12-08T02:28:48.777Z,3.69
2022-12-08T02:31:30.417Z,3.69
2022-12-08T02:34:02.434Z,3.69
2022-12-08T02:36:32.135Z,3.71
2022-12-08T02:39:17.246Z,3.71
2022-12-08T02:41:59.529Z,3.60
2022-12-08T02:44:29.119Z,3.40
2022-12-08T02:47:00.035Z,3.48
2022-12-08T02:49:30.379Z,3.60
2022-12-08T02:52:05.972Z,3.67
2022-12-08T02:54:32.505Z,3.71
2022-12-08T02:57:17.916Z,3.72
2022-12-08T02:59:53.635Z,3.83
2022-12-08T03:02:26.097Z,3.87
2022-12-08T03:05:11.577Z,3.97
2022-12-08T03:07:44.785Z,4.01
2022-12-08T03:10:26.457Z,4.06
2022-12-08T03:12:54.468Z,4.05
2022-12-08T03:15:21.089Z,4.13
2022-12-08T03:17:49.250Z,4.21
2022-12-08T03:20:17.209Z,4.22
2022-12-08T03:22:44.541Z,4.24
2022-12-08T03:25:24.635Z,4.25
2022-12-08T03:27:55.355Z,4.28
2022-12-08T03:30:24.297Z,4.24
2022-12-08T03:33:15.130Z,4.29
2022-12-08T03:35:46.379Z,4.29
2022-12-08T03:38:16.831Z,4.31
2022-12-08T03:41:21.654Z,4.40
2022-12-08T03:43:49.051Z,4.44
2022-12-08T03:46:16.381Z,4.49
2022-12-08T03:48:43.097Z,4.55
2022-12-08T03:51:10.284Z,4.55
2022-12-08T03:53:36.832Z,4.50
2022-12-08T03:56:04.809Z,4.52
2022-12-08T03:58:37.059Z,4.48
2022-12-08T04:01:07.021Z,4.47
2022-12-08T04:03:36.017Z,4.49
2022-12-08T04:06:02.628Z,4.47
2022-12-08T04:08:29.301Z,4.51
2022-12-08T04:10:56.169Z,4.51
2022-12-08T04:13:25.319Z,4.44
2022-12-08T04:15:51.904Z,4.43
2022-12-08T04:18:21.266Z,4.48
2022-12-08T04:20:47.822Z,4.48
2022-12-08T04:23:16.774Z,4.48
2022-12-08T04:25:43.549Z,4.52
2022-12-08T04:28:10.081Z,4.56
2022-12-08T04:30:37.021Z,4.63
2022-12-08T04:33:05.950Z,4.69
2022-12-08T04:35:32.520Z,4.75
2022-12-08T04:38:00.295Z,4.77
2022-12-08T04:40:27.069Z,4.81
2022-12-08T04:42:53.640Z,4.83
2022-12-08T04:45:20.274Z,4.80
2022-12-08T04:47:46.973Z,4.80
2022-12-08T04:50:13.530Z,4.78
2022-12-08T04:52:40.241Z,4.83
2022-12-08T04:55:07.000Z,4.85
2022-12-08T04:57:35.851Z,4.69
2022-12-08T05:00:02.940Z,4.62
2022-12-08T05:02:30.985Z,4.63
2022-12-08T05:05:34.011Z,4.55
2022-12-08T05:08:05.934Z,4.59
2022-12-08T05:10:35.134Z,4.59
2022-12-08T05:13:07.450Z,4.59
2022-12-08T05:15:34.166Z,4.58
2022-12-08T05:18:00.822Z,4.62
2022-12-08T05:20:27.585Z,4.65
2022-12-08T05:22:54.162Z,4.67
2022-12-08T05:25:23.268Z,4.74
2022-12-08T05:27:49.906Z,4.69
2022-12-08T05:30:18.924Z,4.57
2022-12-08T05:32:45.497Z,4.57
2022-12-08T05:35:12.124Z,4.62
2022-12-08T05:37:41.155Z,4.59
2022-12-08T05:40:08.251Z,4.63
2022-12-08T05:42:37.401Z,4.61
2022-12-08T05:45:06.565Z,4.59
2022-12-08T05:47:36.229Z,4.62
2022-12-08T05:50:06.262Z,4.63
2022-12-08T05:52:33.177Z,4.61
2022-12-08T05:55:02.202Z,4.63
2022-12-08T05:57:28.767Z,4.68
2022-12-08T05:59:57.202Z,4.73
2022-12-08T06:02:23.857Z,4.75
2022-12-08T06:04:53.590Z,4.74
2022-12-08T06:07:22.768Z,4.73
2022-12-08T06:09:49.465Z,4.76
2022-12-08T06:12:16.211Z,4.82
2022-12-08T06:14:45.146Z,4.79
2022-12-08T06:17:11.831Z,4.82
2022-12-08T06:19:38.489Z,4.88
2022-12-08T06:22:05.079Z,4.92
2022-12-08T06:24:31.854Z,4.98
2022-12-08T06:26:58.454Z,5.03
2022-12-08T06:29:26.888Z,5.04
2022-12-08T06:31:53.634Z,5.05
2022-12-08T06:34:22.604Z,5.05
2022-12-08T06:36:49.279Z,5.04
2022-12-08T06:39:20.602Z,5.06
2022-12-08T06:42:05.967Z,5.05
2022-12-08T06:44:34.940Z,5.11
2022-12-08T06:47:04.626Z,5.13
2022-12-08T06:49:31.248Z,5.17
2022-12-08T06:52:00.125Z,5.24
2022-12-08T06:54:26.797Z,5.18
2022-12-08T06:56:53.553Z,5.07
2022-12-08T06:59:23.356Z,4.91
2022-12-08T07:01:50.090Z,4.92
2022-12-08T07:04:16.671Z,5.01
2022-12-08T07:06:50.676Z,4.92
2022-12-08T07:09:17.377Z,5.01
2022-12-08T07:11:44.007Z,5.10
2022-12-08T07:14:10.973Z,5.07
2022-12-08T07:16:39.305Z,4.98
2022-12-08T07:19:06.292Z,4.95
2022-12-08T07:21:32.975Z,5.04
2022-12-08T07:23:59.749Z,4.95
2022-12-08T07:26:27.049Z,5.01
2022-12-08T07:28:53.734Z,5.09
2022-12-08T07:31:21.966Z,5.22
2022-12-08T07:33:51.661Z,5.31
2022-12-08T07:36:18.364Z,5.39
2022-12-08T07:38:47.564Z,5.49
2022-12-08T07:41:17.027Z,5.53
2022-12-08T07:43:43.739Z,5.63
2022-12-08T07:46:31.429Z,5.73
2022-12-08T07:49:03.254Z,5.76
2022-12-08T07:51:30.043Z,5.83
2022-12-08T07:53:56.588Z,5.93
2022-12-08T07:56:23.514Z,6.02
2022-12-08T07:58:50.290Z,6.10
2022-12-08T08:01:24.634Z,6.10
2022-12-08T08:03:51.479Z,6.14
2022-12-08T08:06:20.514Z,6.23
2022-12-08T08:08:47.516Z,6.33
2022-12-08T08:11:20.809Z,6.38
2022-12-08T08:13:48.125Z,6.45
2022-12-08T08:16:17.215Z,6.51
2022-12-08T08:18:44.016Z,6.53
2022-12-08T08:23:57.286Z,6.64
2022-12-08T08:26:23.909Z,6.60
2022-12-08T08:28:50.657Z,6.58
2022-12-08T08:31:17.367Z,6.59
2022-12-08T08:33:44.141Z,6.63
2022-12-08T08:36:11.123Z,6.67
2022-12-08T08:38:40.091Z,6.70
2022-12-08T08:41:12.601Z,6.70
2022-12-08T08:43:41.610Z,6.71
2022-12-08T08:46:11.155Z,6.80
2022-12-08T08:48:38.161Z,6.92
2022-12-08T08:51:08.735Z,7.06
2022-12-08T08:53:35.471Z,7.09
2022-12-08T08:56:03.002Z,7.02
2022-12-08T08:58:32.203Z,7.04
2022-12-08T09:00:58.880Z,7.09
2022-12-08T09:03:25.557Z,7.19
2022-12-08T09:05:52.824Z,7.36
2022-12-08T09:08:21.841Z,7.49
2022-12-08T09:10:48.746Z,7.56
2022-12-08T09:13:15.350Z,7.54
2022-12-08T09:15:44.370Z,7.59
2022-12-08T09:18:13.175Z,7.52
2022-12-08T09:20:42.574Z,7.23
2022-12-08T09:23:12.273Z,7.27
2022-12-08T09:25:39.198Z,7.36
2022-12-08T09:28:08.115Z,7.46
2022-12-08T09:30:35.638Z,7.46
2022-12-08T09:33:04.558Z,7.44
2022-12-08T09:35:31.181Z,7.34
2022-12-08T09:37:58.712Z,7.40
2022-12-08T09:40:25.492Z,7.49
2022-12-08T09:42:57.467Z,7.53
2022-12-08T09:45:24.018Z,7.57
2022-12-08T09:47:53.384Z,7.61
2022-12-08T09:50:39.811Z,7.49
2022-12-08T09:53:24.012Z,7.60
2022-12-08T09:55:54.285Z,7.74
2022-12-08T09:58:32.338Z,7.88
2022-12-08T10:01:03.552Z,8.00
2022-12-08T10:03:30.373Z,8.09
2022-12-08T10:06:08.072Z,8.15
2022-12-08T10:08:47.652Z,8.26
2022-12-08T10:11:16.766Z,8.38
2022-12-08T10:13:43.423Z,8.42
2022-12-08T10:16:23.014Z,8.32
2022-12-08T10:18:56.223Z,7.83
2022-12-08T10:21:25.823Z,7.74
2022-12-08T10:23:56.347Z,7.74
2022-12-08T10:26:23.055Z,7.88
2022-12-08T10:28:52.044Z,7.96
2022-12-08T10:31:25.136Z,8.05
2022-12-08T10:33:59.319Z,8.08
2022-12-08T10:36:48.382Z,8.15
2022-12-08T10:39:31.132Z,8.36
2022-12-08T10:42:08.433Z,8.51
2022-12-08T10:44:39.064Z,8.56
2022-12-08T10:47:12.564Z,8.58
2022-12-08T10:49:39.179Z,8.69
2022-12-08T10:52:09.905Z,8.85
2022-12-08T10:54:38.944Z,8.99
2022-12-08T10:57:05.560Z,9.10
2022-12-08T10:59:33.310Z,9.16
2022-12-08T11:02:00.303Z,9.20
2022-12-08T11:04:31.711Z,9.22
2022-12-08T11:06:58.303Z,9.25
2022-12-08T11:09:35.106Z,9.30
2022-12-08T11:12:09.412Z,9.35
2022-12-08T11:14:44.900Z,9.43
2022-12-08T11:17:17.537Z,9.49
2022-12-08T11:19:54.767Z,9.41
2022-12-08T11:22:21.276Z,9.34
2022-12-08T11:24:54.423Z,9.28
2022-12-08T11:27:23.359Z,9.23
2022-12-08T11:29:49.900Z,9.07
2022-12-08T11:32:16.387Z,9.05
2022-12-08T11:34:44.862Z,9.00
2022-12-08T11:37:16.597Z,8.98
2022-12-08T11:39:47.026Z,9.00
2022-12-08T11:42:14.337Z,9.01
2022-12-08T11:44:46.942Z,8.97
2022-12-08T11:47:30.621Z,8.88
2022-12-08T11:50:05.441Z,8.82
2022-12-08T11:52:42.069Z,8.77
2022-12-08T11:55:23.973Z,8.72
2022-12-08T11:57:50.987Z,8.75
2022-12-08T12:00:18.000Z,8.74
2022-12-08T12:02:48.445Z,8.79
2022-12-08T12:06:09.311Z,8.88
2022-12-08T12:08:39.521Z,8.95
2022-12-08T12:11:12.191Z,9.02
2022-12-08T12:13:54.105Z,9.02
2022-12-08T12:16:23.823Z,9.06
2022-12-08T12:18:51.137Z,9.08
2022-12-08T12:21:31.089Z,9.11
2022-12-08T12:24:00.974Z,9.13
2022-12-08T12:26:51.507Z,9.09
2022-12-08T12:29:21.456Z,9.04
2022-12-08T12:31:55.218Z,9.01
2022-12-08T12:34:28.214Z,8.95
2022-12-08T12:37:10.312Z,8.91
2022-12-08T12:39:52.231Z,8.87
2022-12-08T12:42:34.305Z,8.90
2022-12-08T12:45:18.065Z,8.89
2022-12-08T12:47:48.642Z,8.85
2022-12-08T12:50:28.175Z,8.85
2022-12-08T12:52:54.818Z,8.80
2022-12-08T12:55:21.897Z,8.65
2022-12-08T12:57:52.928Z,8.62
2022-12-08T13:00:22.597Z,8.59
2022-12-08T13:02:53.798Z,8.58
2022-12-08T13:05:20.846Z,8.61
2022-12-08T13:07:56.483Z,8.57
2022-12-08T13:10:24.395Z,8.54
2022-12-08T13:13:05.656Z,8.43
2022-12-08T13:15:36.370Z,8.37
2022-12-08T13:18:03.191Z,8.40
2022-12-08T13:20:29.772Z,8.40
2022-12-08T13:23:04.876Z,8.36
2022-12-08T13:25:40.573Z,8.29
2022-12-08T13:28:16.259Z,8.29
2022-12-08T13:30:46.936Z,8.28
2022-12-08T13:33:23.164Z,8.18
2022-12-08T13:36:03.891Z,8.09
2022-12-08T13:38:31.147Z,8.06
2022-12-08T13:40:58.179Z,8.07
2022-12-08T13:43:29.773Z,8.05
2022-12-08T13:55:25.867Z,8.01
2022-12-08T13:57:28.782Z,8.01
2022-12-08T13:59:57.196Z,8.07
2022-12-08T14:02:30.594Z,8.09
2022-12-08T14:07:46.394Z,8.05
2022-12-08T14:10:20.339Z,8.08
2022-12-08T14:12:47.336Z,8.11
2022-12-08T14:15:14.190Z,8.07
2022-12-08T14:17:41.000Z,8.04
2022-12-08T14:20:26.976Z,8.00
2022-12-08T14:22:53.763Z,7.88
2022-12-08T14:25:20.718Z,7.80
2022-12-08T14:27:47.389Z,7.79
2022-12-08T14:30:20.713Z,7.83
2022-12-08T14:32:48.340Z,7.76
2022-12-08T14:35:21.238Z,7.61
2022-12-08T14:37:48.457Z,7.47
2022-12-08T14:40:23.059Z,7.48
2022-12-08T14:42:51.246Z,7.28
2022-12-08T14:45:26.455Z,7.28
2022-12-08T14:47:53.160Z,7.39
2022-12-08T14:50:39.369Z,7.26
2022-12-08T14:53:15.915Z,7.14
2022-12-08T14:55:45.806Z,7.16
2022-12-08T14:58:20.530Z,7.11
2022-12-08T15:00:48.368Z,7.14
2022-12-08T15:03:16.263Z,7.24
2022-12-08T15:05:42.901Z,7.29
2022-12-08T15:08:17.972Z,7.30
2022-12-08T15:10:48.406Z,7.26
2022-12-08T15:13:16.433Z,7.26
2022-12-08T15:15:47.385Z,7.28
2022-12-08T15:18:18.717Z,7.29
2022-12-08T15:20:54.521Z,7.22
2022-12-08T15:23:21.331Z,7.27
2022-12-08T15:25:49.657Z,7.26
2022-12-08T15:28:17.650Z,7.31
2022-12-08T15:30:44.344Z,7.34
2022-12-08T15:33:10.830Z,7.34
2022-12-08T15:35:40.990Z,7.39
2022-12-08T15:38:12.214Z,7.46
2022-12-08T15:40:38.839Z,7.46
2022-12-08T15:43:09.294Z,7.45
2022-12-08T15:45:38.305Z,7.45
2022-12-08T15:48:05.347Z,7.49
2022-12-08T15:50:31.917Z,7.49
2022-12-08T15:52:58.504Z,7.50
2022-12-08T15:55:25.024Z,7.52
2022-12-08T15:58:51.323Z,7.53
2022-12-08T16:00:55.661Z,7.53
2022-12-08T16:04:02.736Z,7.51
2022-12-08T16:07:04.316Z,7.50
2022-12-08T16:09:11.371Z,7.52
2022-12-08T16:12:06.632Z,7.40
2022-12-08T16:15:39.798Z,7.36
2022-12-08T16:17:21.250Z,7.38
2022-12-08T16:19:48.980Z,7.36
2022-12-08T16:25:18.353Z,7.41
2022-12-08T16:28:12.429Z,7.38
2022-12-08T16:30:35.058Z,7.37
2022-12-08T16:33:01.713Z,7.29
2022-12-08T16:35:28.423Z,7.02
2022-12-08T16:37:59.656Z,6.94
2022-12-08T16:40:26.148Z,7.01
2022-12-08T16:43:00.082Z,7.07
2022-12-08T16:45:29.581Z,7.16
2022-12-08T16:47:59.559Z,7.18
2022-12-08T16:50:30.676Z,7.16
2022-12-08T16:53:00.793Z,7.13
2022-12-08T16:55:29.600Z,7.11
2022-12-08T16:57:56.727Z,7.09
2022-12-08T17:00:27.173Z,7.00
2022-12-08T17:02:54.115Z,6.83
2022-12-08T17:05:21.547Z,6.76
2022-12-08T17:07:51.392Z,6.78
2022-12-08T17:10:25.290Z,6.87
2022-12-08T17:12:52.066Z,6.93
2022-12-08T17:15:20.109Z,6.97
2022-12-08T17:17:46.826Z,7.04
2022-12-08T17:20:15.050Z,7.06
2022-12-08T17:22:41.606Z,7.03
2022-12-08T17:25:08.324Z,7.06
2022-12-08T17:27:35.054Z,7.13
2022-12-08T17:30:01.589Z,7.12
2022-12-08T17:32:30.927Z,7.10
2022-12-08T17:34:59.037Z,7.13
2022-12-08T17:37:26.230Z,7.13
2022-12-08T17:39:53.211Z,7.16
2022-12-08T17:42:25.945Z,7.19
2022-12-08T17:44:53.628Z,7.22
2022-12-08T17:47:20.169Z,7.27
2022-12-08T17:49:49.163Z,7.34
2022-12-08T17:52:18.236Z,7.38
2022-12-08T17:54:47.275Z,7.36
2022-12-08T17:57:16.300Z,7.37
2022-12-08T17:59:42.811Z,7.35
2022-12-08T18:02:09.753Z,7.30
2022-12-08T18:04:36.292Z,7.29
2022-12-08T18:07:04.165Z,7.27
2022-12-08T18:09:31.237Z,7.17
2022-12-08T18:11:58.030Z,7.17
2022-12-08T18:14:24.613Z,7.21
2022-12-08T18:16:51.205Z,7.22
2022-12-08T18:19:20.229Z,7.20
2022-12-08T18:21:46.836Z,7.16
2022-12-08T18:24:16.975Z,7.22
2022-12-08T18:26:43.490Z,7.28
2022-12-08T18:29:12.550Z,7.29
2022-12-08T18:31:44.422Z,7.30
2022-12-08T18:34:15.359Z,7.31
2022-12-08T18:36:42.172Z,7.34
2022-12-08T18:39:13.037Z,7.30
2022-12-08T18:41:41.965Z,7.35
2022-12-08T18:44:11.057Z,7.19
2022-12-08T18:46:37.920Z,7.22
2022-12-08T18:49:09.399Z,7.14
2022-12-08T18:51:36.017Z,7.02
2022-12-08T18:54:02.521Z,6.97
2022-12-08T18:56:32.385Z,7.04
2022-12-08T18:59:03.643Z,7.11
2022-12-08T19:01:31.865Z,7.18
2022-12-08T19:06:47.668Z,7.21
2022-12-08T19:09:16.176Z,7.23
2022-12-08T19:11:47.550Z,7.16
2022-12-08T19:14:14.257Z,7.21
2022-12-08T19:16:43.292Z,7.25
2022-12-08T19:19:09.926Z,7.28
2022-12-08T19:21:44.577Z,7.27
2022-12-08T19:24:15.567Z,7.34
2022-12-08T19:26:44.482Z,7.38
2022-12-08T19:29:13.898Z,7.38
2022-12-08T19:31:40.952Z,7.41
2022-12-08T19:34:09.342Z,7.42
2022-12-08T19:36:42.141Z,7.44
2022-12-08T19:39:39.269Z,7.35
2022-12-08T19:42:31.563Z,7.38
2022-12-08T19:44:59.482Z,7.42
2022-12-08T19:47:26.612Z,7.44
2022-12-08T19:50:15.740Z,7.41
2022-12-08T19:52:42.465Z,7.24
2022-12-08T19:55:11.939Z,7.24
2022-12-08T19:57:40.642Z,7.25
2022-12-08T20:00:15.725Z,7.24
2022-12-08T20:02:51.694Z,7.23
2022-12-08T20:05:18.390Z,7.25
2022-12-08T20:07:45.074Z,7.25
2022-12-08T20:10:16.049Z,7.25
2022-12-08T20:12:42.638Z,7.29
2022-12-08T20:15:10.564Z,7.30
2022-12-08T20:17:37.660Z,7.33
2022-12-08T20:20:07.431Z,7.35
2022-12-08T20:22:34.905Z,7.37
2022-12-08T20:25:01.712Z,7.35
2022-12-08T20:27:29.260Z,7.36
2022-12-08T20:29:55.849Z,7.30
2022-12-08T20:32:29.913Z,7.26
2022-12-08T20:34:56.568Z,7.25
2022-12-08T20:37:25.568Z,7.26
2022-12-08T20:39:58.313Z,7.25
2022-12-08T20:42:27.357Z,7.27
2022-12-08T20:44:57.426Z,7.31
2022-12-08T20:47:24.057Z,7.28
2022-12-08T20:49:53.175Z,7.32
2022-12-08T20:52:22.204Z,7.31
2022-12-08T20:54:51.318Z,7.31
2022-12-08T20:57:20.405Z,7.29
2022-12-08T20:59:46.986Z,7.15
2022-12-08T21:02:13.722Z,7.07
2022-12-08T21:04:42.967Z,7.03
2022-12-08T21:07:12.445Z,7.04
2022-12-08T21:09:39.316Z,7.09
2022-12-08T21:12:06.389Z,7.15
2022-12-08T21:14:34.599Z,7.17
2022-12-08T21:17:01.384Z,7.17
2022-12-08T21:19:28.291Z,7.14
2022-12-08T21:21:54.889Z,7.12
2022-12-08T21:24:21.411Z,7.12
2022-12-08T21:26:48.362Z,7.13
2022-12-08T21:29:17.347Z,7.16
2022-12-08T21:31:44.148Z,7.13
2022-12-08T21:34:13.219Z,7.14
2022-12-08T21:36:42.178Z,7.17
2022-12-08T21:39:11.278Z,7.18
2022-12-08T21:41:56.646Z,7.18
2022-12-08T21:44:26.148Z,7.15
2022-12-08T21:46:52.759Z,7.14
2022-12-08T21:49:19.557Z,7.11
2022-12-08T21:51:48.445Z,7.11
2022-12-08T21:54:18.752Z,7.12
2022-12-08T21:56:46.269Z,7.14
2022-12-08T21:59:19.778Z,7.16
2022-12-08T22:01:49.068Z,7.10
2022-12-08T22:04:16.883Z,7.03
2022-12-08T22:06:43.536Z,7.02
2022-12-08T22:09:11.923Z,7.03
2022-12-08T22:11:38.543Z,6.99
2022-12-08T22:14:08.396Z,6.97
2022-12-08T22:16:41.604Z,6.96
2022-12-08T22:19:08.219Z,6.99
2022-12-08T22:21:35.580Z,6.99
2022-12-08T22:24:02.201Z,7.00
2022-12-08T22:26:31.027Z,7.01
2022-12-08T22:28:57.696Z,7.02
2022-12-08T22:31:24.306Z,7.02
2022-12-08T22:33:51.109Z,7.02
2022-12-08T22:36:21.258Z,7.02
2022-12-08T22:38:47.895Z,6.99
2022-12-08T22:41:17.279Z,7.02
2022-12-08T22:43:46.514Z,6.99
2022-12-08T22:46:22.755Z,6.93
2022-12-08T22:48:53.440Z,6.92
2022-12-08T22:51:20.312Z,6.95
2022-12-08T22:53:47.133Z,6.93
2022-12-08T22:56:14.345Z,6.81
2022-12-08T22:58:41.317Z,6.79
2022-12-08T23:01:08.029Z,6.81
2022-12-08T23:03:37.372Z,6.83
2022-12-08T23:06:06.669Z,6.80
2022-12-08T23:08:33.375Z,6.80
2022-12-08T23:11:00.022Z,6.77
2022-12-08T23:13:28.957Z,6.79
2022-12-08T23:15:57.838Z,6.75
2022-12-08T23:18:24.850Z,6.75
2022-12-08T23:20:53.991Z,6.70
2022-12-08T23:23:20.537Z,6.68
2022-12-08T23:25:47.303Z,6.64
2022-12-08T23:28:13.932Z,6.64
2022-12-08T23:30:40.794Z,6.64
2022-12-08T23:33:07.497Z,6.73
2022-12-08T23:35:34.156Z,6.76
2022-12-08T23:38:00.821Z,6.77
2022-12-08T23:40:27.529Z,6.73
2022-12-08T23:42:54.079Z,6.77
2022-12-08T23:45:20.771Z,6.82
2022-12-08T23:47:47.354Z,6.89
2022-12-08T23:50:14.080Z,6.89
2022-12-08T23:52:43.094Z,6.83
2022-12-08T23:55:11.127Z,6.88
2022-12-08T23:57:38.051Z,6.76
